sensor_id;sensor_type;location;lat;lon;timestamp;P1;durP1;ratioP1;P2;durP2;ratioP2
7931;SDS011;4011;49.424;10.894;2023-12-20T00:00:07;2.67;;;1.70;;
7931;SDS011;4011;49.424;10.894;2023-12-20T00:05:29;3.33;;;1.75;;
7931;SDS011;4011;49.424;10.894;2023-12-20T00:10:53;2.95;;;1.80;;
7931;SDS011;4011;49.424;10.894;2023-12-20T00:16:15;2.97;;;1.90;;
7931;SDS011;4011;49.424;10.894;2023-12-20T00:21:36;3.00;;;1.70;;
7931;SDS011;4011;49.424;10.894;2023-12-20T00:26:59;3.17;;;1.88;;
7931;SDS011;4011;49.424;10.894;2023-12-20T00:32:21;3.35;;;1.73;;
7931;SDS011;4011;49.424;10.894;2023-12-20T00:37:42;2.78;;;1.70;;
7931;SDS011;4011;49.424;10.894;2023-12-20T00:43:05;2.60;;;1.55;;
7931;SDS011;4011;49.424;10.894;2023-12-20T00:48:28;3.10;;;1.70;;
7931;SDS011;4011;49.424;10.894;2023-12-20T00:53:51;3.28;;;1.50;;
7931;SDS011;4011;49.424;10.894;2023-12-20T00:59:16;2.88;;;1.63;;
7931;SDS011;4011;49.424;10.894;2023-12-20T01:04:38;3.60;;;1.80;;
7931;SDS011;4011;49.424;10.894;2023-12-20T01:09:59;2.55;;;1.65;;
7931;SDS011;4011;49.424;10.894;2023-12-20T01:15:23;2.60;;;1.60;;
7931;SDS011;4011;49.424;10.894;2023-12-20T01:20:45;2.58;;;1.67;;
7931;SDS011;4011;49.424;10.894;2023-12-20T01:26:07;3.10;;;1.67;;
7931;SDS011;4011;49.424;10.894;2023-12-20T01:31:30;3.15;;;1.50;;
7931;SDS011;4011;49.424;10.894;2023-12-20T01:36:51;2.40;;;1.55;;
7931;SDS011;4011;49.424;10.894;2023-12-20T01:42:13;2.60;;;1.50;;
7931;SDS011;4011;49.424;10.894;2023-12-20T01:47:36;2.00;;;1.30;;
7931;SDS011;4011;49.424;10.894;2023-12-20T01:52:57;1.98;;;1.35;;
7931;SDS011;4011;49.424;10.894;2023-12-20T01:58:20;2.40;;;1.40;;
7931;SDS011;4011;49.424;10.894;2023-12-20T02:03:44;2.45;;;1.38;;
7931;SDS011;4011;49.424;10.894;2023-12-20T02:09:06;2.22;;;1.30;;
7931;SDS011;4011;49.424;10.894;2023-12-20T02:14:28;2.05;;;1.40;;
7931;SDS011;4011;49.424;10.894;2023-12-20T02:19:51;2.50;;;1.38;;
7931;SDS011;4011;49.424;10.894;2023-12-20T02:25:14;1.98;;;1.30;;
7931;SDS011;4011;49.424;10.894;2023-12-20T02:30:35;1.85;;;1.20;;
7931;SDS011;4011;49.424;10.894;2023-12-20T02:35:57;2.53;;;1.30;;
7931;SDS011;4011;49.424;10.894;2023-12-20T02:41:20;2.45;;;1.40;;
7931;SDS011;4011;49.424;10.894;2023-12-20T02:46:41;2.33;;;1.30;;
7931;SDS011;4011;49.424;10.894;2023-12-20T02:52:03;1.80;;;1.20;;
7931;SDS011;4011;49.424;10.894;2023-12-20T02:57:26;2.22;;;1.20;;
7931;SDS011;4011;49.424;10.894;2023-12-20T03:02:48;1.70;;;1.13;;
7931;SDS011;4011;49.424;10.894;2023-12-20T03:08:10;1.35;;;1.15;;
7931;SDS011;4011;49.424;10.894;2023-12-20T03:13:33;1.20;;;1.10;;
7931;SDS011;4011;49.424;10.894;2023-12-20T03:18:55;1.42;;;1.10;;
7931;SDS011;4011;49.424;10.894;2023-12-20T03:24:16;1.25;;;0.90;;
7931;SDS011;4011;49.424;10.894;2023-12-20T03:29:40;1.60;;;1.10;;
7931;SDS011;4011;49.424;10.894;2023-12-20T03:35:01;1.35;;;1.17;;
7931;SDS011;4011;49.424;10.894;2023-12-20T03:40:23;1.20;;;0.77;;
7931;SDS011;4011;49.424;10.894;2023-12-20T03:45:46;1.23;;;1.02;;
7931;SDS011;4011;49.424;10.894;2023-12-20T03:51:09;1.17;;;0.90;;
7931;SDS011;4011;49.424;10.894;2023-12-20T03:56:30;1.42;;;0.85;;
7931;SDS011;4011;49.424;10.894;2023-12-20T04:01:53;1.45;;;0.98;;
7931;SDS011;4011;49.424;10.894;2023-12-20T04:07:17;0.77;;;0.77;;
7931;SDS011;4011;49.424;10.894;2023-12-20T04:12:39;1.10;;;0.80;;
7931;SDS011;4011;49.424;10.894;2023-12-20T04:18:01;0.95;;;0.82;;
7931;SDS011;4011;49.424;10.894;2023-12-20T04:23:23;0.70;;;0.70;;
7931;SDS011;4011;49.424;10.894;2023-12-20T04:28:44;0.77;;;0.60;;
7931;SDS011;4011;49.424;10.894;2023-12-20T04:34:08;1.40;;;0.98;;
7931;SDS011;4011;49.424;10.894;2023-12-20T04:39:29;2.17;;;1.00;;
7931;SDS011;4011;49.424;10.894;2023-12-20T04:44:50;1.02;;;0.90;;
7931;SDS011;4011;49.424;10.894;2023-12-20T04:50:14;1.10;;;0.80;;
7931;SDS011;4011;49.424;10.894;2023-12-20T04:55:35;1.10;;;0.90;;
7931;SDS011;4011;49.424;10.894;2023-12-20T05:00:57;0.93;;;0.80;;
7931;SDS011;4011;49.424;10.894;2023-12-20T05:06:20;0.95;;;0.70;;
7931;SDS011;4011;49.424;10.894;2023-12-20T05:11:42;0.90;;;0.70;;
7931;SDS011;4011;49.424;10.894;2023-12-20T05:17:03;0.95;;;0.73;;
7931;SDS011;4011;49.424;10.894;2023-12-20T05:22:26;0.88;;;0.73;;
7931;SDS011;4011;49.424;10.894;2023-12-20T05:27:51;0.60;;;0.50;;
7931;SDS011;4011;49.424;10.894;2023-12-20T05:33:12;1.30;;;0.70;;
7931;SDS011;4011;49.424;10.894;2023-12-20T05:38:35;1.10;;;1.00;;
7931;SDS011;4011;49.424;10.894;2023-12-20T05:43:56;0.85;;;0.70;;
7931;SDS011;4011;49.424;10.894;2023-12-20T05:49:18;2.78;;;0.90;;
7931;SDS011;4011;49.424;10.894;2023-12-20T05:54:43;2.53;;;1.30;;
7931;SDS011;4011;49.424;10.894;2023-12-20T06:00:04;1.58;;;0.90;;
7931;SDS011;4011;49.424;10.894;2023-12-20T06:05:26;3.83;;;1.25;;
7931;SDS011;4011;49.424;10.894;2023-12-20T06:10:49;1.75;;;0.98;;
7931;SDS011;4011;49.424;10.894;2023-12-20T06:16:12;2.33;;;1.00;;
7931;SDS011;4011;49.424;10.894;2023-12-20T06:21:35;1.90;;;1.10;;
7931;SDS011;4011;49.424;10.894;2023-12-20T06:26:58;0.88;;;0.82;;
7931;SDS011;4011;49.424;10.894;2023-12-20T06:32:19;1.77;;;1.10;;
7931;SDS011;4011;49.424;10.894;2023-12-20T06:37:41;1.77;;;1.02;;
7931;SDS011;4011;49.424;10.894;2023-12-20T06:43:05;1.50;;;0.85;;
7931;SDS011;4011;49.424;10.894;2023-12-20T06:48:27;1.08;;;0.82;;
7931;SDS011;4011;49.424;10.894;2023-12-20T06:53:48;1.30;;;0.90;;
7931;SDS011;4011;49.424;10.894;2023-12-20T06:59:13;1.13;;;0.95;;
7931;SDS011;4011;49.424;10.894;2023-12-20T07:04:38;1.90;;;1.00;;
7931;SDS011;4011;49.424;10.894;2023-12-20T07:10:00;0.77;;;0.63;;
7931;SDS011;4011;49.424;10.894;2023-12-20T07:15:23;1.42;;;0.95;;
7931;SDS011;4011;49.424;10.894;2023-12-20T07:20:45;1.30;;;0.85;;
7931;SDS011;4011;49.424;10.894;2023-12-20T07:26:06;1.00;;;0.90;;
7931;SDS011;4011;49.424;10.894;2023-12-20T07:31:29;1.13;;;0.82;;
7931;SDS011;4011;49.424;10.894;2023-12-20T07:36:50;0.85;;;0.80;;
7931;SDS011;4011;49.424;10.894;2023-12-20T07:42:12;1.08;;;0.80;;
7931;SDS011;4011;49.424;10.894;2023-12-20T07:47:35;1.00;;;0.77;;
7931;SDS011;4011;49.424;10.894;2023-12-20T07:52:56;1.55;;;1.10;;
7931;SDS011;4011;49.424;10.894;2023-12-20T07:58:19;1.52;;;1.20;;
7931;SDS011;4011;49.424;10.894;2023-12-20T08:03:42;0.88;;;0.80;;
7931;SDS011;4011;49.424;10.894;2023-12-20T08:09:04;1.63;;;1.10;;
7931;SDS011;4011;49.424;10.894;2023-12-20T08:14:25;1.88;;;1.00;;
7931;SDS011;4011;49.424;10.894;2023-12-20T08:19:48;1.55;;;1.00;;
7931;SDS011;4011;49.424;10.894;2023-12-20T08:25:09;1.15;;;0.90;;
7931;SDS011;4011;49.424;10.894;2023-12-20T08:30:31;1.00;;;0.90;;
7931;SDS011;4011;49.424;10.894;2023-12-20T08:35:55;1.13;;;1.00;;
7931;SDS011;4011;49.424;10.894;2023-12-20T08:41:17;1.45;;;1.02;;
7931;SDS011;4011;49.424;10.894;2023-12-20T08:46:38;2.88;;;1.20;;
7931;SDS011;4011;49.424;10.894;2023-12-20T08:52:01;2.08;;;1.23;;
7931;SDS011;4011;49.424;10.894;2023-12-20T08:57:22;2.28;;;1.30;;
7931;SDS011;4011;49.424;10.894;2023-12-20T09:02:45;1.70;;;1.17;;
7931;SDS011;4011;49.424;10.894;2023-12-20T09:08:08;2.67;;;1.30;;
7931;SDS011;4011;49.424;10.894;2023-12-20T09:13:30;2.00;;;1.20;;
7931;SDS011;4011;49.424;10.894;2023-12-20T09:18:52;1.80;;;1.02;;
7931;SDS011;4011;49.424;10.894;2023-12-20T09:24:14;1.63;;;1.10;;
7931;SDS011;4011;49.424;10.894;2023-12-20T09:29:36;1.75;;;1.13;;
7931;SDS011;4011;49.424;10.894;2023-12-20T09:34:57;2.60;;;1.02;;
7931;SDS011;4011;49.424;10.894;2023-12-20T09:40:20;1.45;;;0.98;;
7931;SDS011;4011;49.424;10.894;2023-12-20T09:45:44;1.45;;;1.10;;
7931;SDS011;4011;49.424;10.894;2023-12-20T09:51:07;2.08;;;1.17;;
7931;SDS011;4011;49.424;10.894;2023-12-20T09:56:30;1.35;;;0.73;;
7931;SDS011;4011;49.424;10.894;2023-12-20T10:01:52;1.10;;;0.98;;
7931;SDS011;4011;49.424;10.894;2023-12-20T10:07:15;1.63;;;1.00;;
7931;SDS011;4011;49.424;10.894;2023-12-20T10:12:38;1.75;;;1.15;;
7931;SDS011;4011;49.424;10.894;2023-12-20T10:18:00;1.58;;;0.70;;
7931;SDS011;4011;49.424;10.894;2023-12-20T10:23:22;2.70;;;1.10;;
7931;SDS011;4011;49.424;10.894;2023-12-20T10:28:45;2.42;;;1.30;;
7931;SDS011;4011;49.424;10.894;2023-12-20T10:34:08;1.75;;;1.00;;
7931;SDS011;4011;49.424;10.894;2023-12-20T10:39:30;2.17;;;1.08;;
7931;SDS011;4011;49.424;10.894;2023-12-20T10:44:53;1.83;;;1.17;;
7931;SDS011;4011;49.424;10.894;2023-12-20T10:50:15;3.33;;;1.00;;
7931;SDS011;4011;49.424;10.894;2023-12-20T10:55:37;2.25;;;1.10;;
7931;SDS011;4011;49.424;10.894;2023-12-20T11:01:00;1.73;;;1.10;;
7931;SDS011;4011;49.424;10.894;2023-12-20T11:06:31;1.80;;;1.00;;
7931;SDS011;4011;49.424;10.894;2023-12-20T11:11:59;1.92;;;1.20;;
7931;SDS011;4011;49.424;10.894;2023-12-20T11:17:24;1.75;;;1.13;;
7931;SDS011;4011;49.424;10.894;2023-12-20T11:22:52;1.67;;;1.10;;
7931;SDS011;4011;49.424;10.894;2023-12-20T11:28:13;1.75;;;0.88;;
7931;SDS011;4011;49.424;10.894;2023-12-20T11:33:37;2.20;;;1.10;;
7931;SDS011;4011;49.424;10.894;2023-12-20T11:38:59;1.77;;;1.02;;
7931;SDS011;4011;49.424;10.894;2023-12-20T11:44:20;2.17;;;1.10;;
7931;SDS011;4011;49.424;10.894;2023-12-20T11:49:43;1.27;;;0.93;;
7931;SDS011;4011;49.424;10.894;2023-12-20T11:55:05;2.05;;;1.30;;
7931;SDS011;4011;49.424;10.894;2023-12-20T12:00:27;1.85;;;1.00;;
7931;SDS011;4011;49.424;10.894;2023-12-20T12:05:50;2.03;;;1.20;;
7931;SDS011;4011;49.424;10.894;2023-12-20T12:11:11;1.98;;;1.13;;
7931;SDS011;4011;49.424;10.894;2023-12-20T12:16:33;2.03;;;1.20;;
7931;SDS011;4011;49.424;10.894;2023-12-20T12:22:05;2.92;;;1.35;;
7931;SDS011;4011;49.424;10.894;2023-12-20T12:27:28;2.97;;;1.23;;
7931;SDS011;4011;49.424;10.894;2023-12-20T12:32:50;2.97;;;1.15;;
7931;SDS011;4011;49.424;10.894;2023-12-20T12:38:13;2.50;;;1.05;;
7931;SDS011;4011;49.424;10.894;2023-12-20T12:43:36;2.50;;;1.33;;
7931;SDS011;4011;49.424;10.894;2023-12-20T12:48:57;1.33;;;0.98;;
7931;SDS011;4011;49.424;10.894;2023-12-20T12:54:21;1.75;;;1.13;;
7931;SDS011;4011;49.424;10.894;2023-12-20T12:59:42;2.65;;;1.20;;
7931;SDS011;4011;49.424;10.894;2023-12-20T13:05:06;2.88;;;1.40;;
7931;SDS011;4011;49.424;10.894;2023-12-20T13:10:29;1.95;;;1.10;;
7931;SDS011;4011;49.424;10.894;2023-12-20T13:15:50;3.15;;;1.13;;
7931;SDS011;4011;49.424;10.894;2023-12-20T13:21:14;2.22;;;1.13;;
7931;SDS011;4011;49.424;10.894;2023-12-20T13:26:38;2.40;;;1.00;;
7931;SDS011;4011;49.424;10.894;2023-12-20T13:32:00;3.50;;;1.30;;
7931;SDS011;4011;49.424;10.894;2023-12-20T13:37:23;1.50;;;1.08;;
7931;SDS011;4011;49.424;10.894;2023-12-20T13:42:47;2.30;;;1.17;;
7931;SDS011;4011;49.424;10.894;2023-12-20T13:48:09;1.35;;;0.80;;
7931;SDS011;4011;49.424;10.894;2023-12-20T13:53:30;2.20;;;1.15;;
7931;SDS011;4011;49.424;10.894;2023-12-20T13:58:53;1.33;;;0.88;;
7931;SDS011;4011;49.424;10.894;2023-12-20T14:04:15;2.33;;;1.23;;
7931;SDS011;4011;49.424;10.894;2023-12-20T14:09:36;1.83;;;1.10;;
7931;SDS011;4011;49.424;10.894;2023-12-20T14:15:00;1.80;;;1.08;;
7931;SDS011;4011;49.424;10.894;2023-12-20T14:20:21;2.05;;;1.10;;
7931;SDS011;4011;49.424;10.894;2023-12-20T14:25:42;2.30;;;1.10;;
7931;SDS011;4011;49.424;10.894;2023-12-20T14:31:06;3.42;;;1.20;;
7931;SDS011;4011;49.424;10.894;2023-12-20T14:36:28;4.40;;;1.67;;
7931;SDS011;4011;49.424;10.894;2023-12-20T14:41:50;2.10;;;1.25;;
7931;SDS011;4011;49.424;10.894;2023-12-20T14:47:14;1.92;;;1.20;;
7931;SDS011;4011;49.424;10.894;2023-12-20T14:52:36;2.72;;;1.20;;
7931;SDS011;4011;49.424;10.894;2023-12-20T14:57:58;1.77;;;1.00;;
7931;SDS011;4011;49.424;10.894;2023-12-20T15:03:22;1.92;;;1.25;;
7931;SDS011;4011;49.424;10.894;2023-12-20T15:08:44;4.30;;;1.60;;
7931;SDS011;4011;49.424;10.894;2023-12-20T15:14:06;4.35;;;1.58;;
7931;SDS011;4011;49.424;10.894;2023-12-20T15:19:29;2.92;;;1.52;;
7931;SDS011;4011;49.424;10.894;2023-12-20T15:24:50;4.10;;;1.55;;
7931;SDS011;4011;49.424;10.894;2023-12-20T15:30:14;3.75;;;1.40;;
7931;SDS011;4011;49.424;10.894;2023-12-20T15:35:37;4.60;;;1.55;;
7931;SDS011;4011;49.424;10.894;2023-12-20T15:40:59;5.90;;;1.40;;
7931;SDS011;4011;49.424;10.894;2023-12-20T15:46:22;6.13;;;1.70;;
7931;SDS011;4011;49.424;10.894;2023-12-20T15:51:45;4.80;;;1.70;;
7931;SDS011;4011;49.424;10.894;2023-12-20T15:57:07;4.88;;;1.90;;
7931;SDS011;4011;49.424;10.894;2023-12-20T16:02:29;4.18;;;1.63;;
7931;SDS011;4011;49.424;10.894;2023-12-20T16:07:52;3.88;;;1.80;;
7931;SDS011;4011;49.424;10.894;2023-12-20T16:13:13;3.72;;;1.73;;
7931;SDS011;4011;49.424;10.894;2023-12-20T16:18:34;5.45;;;1.90;;
7931;SDS011;4011;49.424;10.894;2023-12-20T16:23:58;4.07;;;1.88;;
7931;SDS011;4011;49.424;10.894;2023-12-20T16:29:19;4.13;;;1.80;;
7931;SDS011;4011;49.424;10.894;2023-12-20T16:34:41;4.80;;;1.83;;
7931;SDS011;4011;49.424;10.894;2023-12-20T16:40:05;4.35;;;1.52;;
7931;SDS011;4011;49.424;10.894;2023-12-20T16:45:28;3.28;;;1.50;;
7931;SDS011;4011;49.424;10.894;2023-12-20T16:50:50;2.63;;;1.42;;
7931;SDS011;4011;49.424;10.894;2023-12-20T16:56:13;5.13;;;1.73;;
7931;SDS011;4011;49.424;10.894;2023-12-20T17:01:34;2.70;;;1.60;;
7931;SDS011;4011;49.424;10.894;2023-12-20T17:06:56;3.20;;;1.50;;
7931;SDS011;4011;49.424;10.894;2023-12-20T17:12:19;3.83;;;1.60;;
7931;SDS011;4011;49.424;10.894;2023-12-20T17:17:40;3.50;;;1.67;;
7931;SDS011;4011;49.424;10.894;2023-12-20T17:23:02;2.92;;;1.48;;
7931;SDS011;4011;49.424;10.894;2023-12-20T17:28:25;3.72;;;1.67;;
7931;SDS011;4011;49.424;10.894;2023-12-20T17:33:46;4.05;;;1.63;;
7931;SDS011;4011;49.424;10.894;2023-12-20T17:39:08;3.97;;;1.85;;
7931;SDS011;4011;49.424;10.894;2023-12-20T17:44:31;3.58;;;1.60;;
7931;SDS011;4011;49.424;10.894;2023-12-20T17:49:52;3.72;;;1.70;;
7931;SDS011;4011;49.424;10.894;2023-12-20T17:55:14;2.33;;;1.45;;
7931;SDS011;4011;49.424;10.894;2023-12-20T18:00:37;3.05;;;1.65;;
7931;SDS011;4011;49.424;10.894;2023-12-20T18:06:00;3.25;;;1.90;;
7931;SDS011;4011;49.424;10.894;2023-12-20T18:11:22;3.78;;;1.65;;
7931;SDS011;4011;49.424;10.894;2023-12-20T18:16:47;3.35;;;1.60;;
7931;SDS011;4011;49.424;10.894;2023-12-20T18:22:08;3.88;;;1.50;;
7931;SDS011;4011;49.424;10.894;2023-12-20T18:27:29;2.90;;;1.40;;
7931;SDS011;4011;49.424;10.894;2023-12-20T18:32:52;2.67;;;1.50;;
7931;SDS011;4011;49.424;10.894;2023-12-20T18:38:14;3.22;;;1.50;;
7931;SDS011;4011;49.424;10.894;2023-12-20T18:43:36;2.70;;;1.35;;
7931;SDS011;4011;49.424;10.894;2023-12-20T18:49:00;3.55;;;1.50;;
7931;SDS011;4011;49.424;10.894;2023-12-20T18:54:21;2.85;;;1.48;;
7931;SDS011;4011;49.424;10.894;2023-12-20T18:59:44;2.90;;;1.60;;
7931;SDS011;4011;49.424;10.894;2023-12-20T19:05:07;4.25;;;1.67;;
7931;SDS011;4011;49.424;10.894;2023-12-20T19:10:29;3.28;;;1.63;;
7931;SDS011;4011;49.424;10.894;2023-12-20T19:15:50;3.83;;;1.63;;
7931;SDS011;4011;49.424;10.894;2023-12-20T19:21:14;2.50;;;1.50;;
7931;SDS011;4011;49.424;10.894;2023-12-20T19:26:37;2.63;;;1.55;;
7931;SDS011;4011;49.424;10.894;2023-12-20T19:31:58;2.40;;;1.40;;
7931;SDS011;4011;49.424;10.894;2023-12-20T19:37:22;4.45;;;1.60;;
7931;SDS011;4011;49.424;10.894;2023-12-20T19:42:43;3.22;;;1.60;;
7931;SDS011;4011;49.424;10.894;2023-12-20T19:48:05;3.70;;;1.70;;
7931;SDS011;4011;49.424;10.894;2023-12-20T19:53:28;3.35;;;1.60;;
7931;SDS011;4011;49.424;10.894;2023-12-20T19:58:50;3.30;;;1.42;;
7931;SDS011;4011;49.424;10.894;2023-12-20T20:04:11;2.55;;;1.38;;
7931;SDS011;4011;49.424;10.894;2023-12-20T20:09:34;2.63;;;1.48;;
7931;SDS011;4011;49.424;10.894;2023-12-20T20:14:55;1.90;;;1.30;;
7931;SDS011;4011;49.424;10.894;2023-12-20T20:20:16;1.88;;;1.23;;
7931;SDS011;4011;49.424;10.894;2023-12-20T20:25:40;1.92;;;1.38;;
7931;SDS011;4011;49.424;10.894;2023-12-20T20:31:01;3.67;;;1.70;;
7931;SDS011;4011;49.424;10.894;2023-12-20T20:36:23;2.33;;;1.45;;
7931;SDS011;4011;49.424;10.894;2023-12-20T20:41:45;1.98;;;1.20;;
7931;SDS011;4011;49.424;10.894;2023-12-20T20:47:07;2.10;;;1.13;;
7931;SDS011;4011;49.424;10.894;2023-12-20T20:52:28;2.60;;;1.45;;
7931;SDS011;4011;49.424;10.894;2023-12-20T20:57:51;2.35;;;1.40;;
7931;SDS011;4011;49.424;10.894;2023-12-20T21:03:12;2.30;;;1.40;;
7931;SDS011;4011;49.424;10.894;2023-12-20T21:08:34;3.10;;;1.50;;
7931;SDS011;4011;49.424;10.894;2023-12-20T21:13:57;2.58;;;1.30;;
7931;SDS011;4011;49.424;10.894;2023-12-20T21:19:19;2.70;;;1.40;;
7931;SDS011;4011;49.424;10.894;2023-12-20T21:24:40;2.90;;;1.55;;
7931;SDS011;4011;49.424;10.894;2023-12-20T21:30:03;2.72;;;1.65;;
7931;SDS011;4011;49.424;10.894;2023-12-20T21:35:25;3.33;;;1.58;;
7931;SDS011;4011;49.424;10.894;2023-12-20T21:40:47;3.10;;;1.50;;
7931;SDS011;4011;49.424;10.894;2023-12-20T21:46:10;3.10;;;1.70;;
7931;SDS011;4011;49.424;10.894;2023-12-20T21:51:32;2.50;;;1.23;;
7931;SDS011;4011;49.424;10.894;2023-12-20T21:56:53;2.55;;;1.50;;
7931;SDS011;4011;49.424;10.894;2023-12-20T22:02:17;3.58;;;1.48;;
7931;SDS011;4011;49.424;10.894;2023-12-20T22:07:39;3.13;;;1.60;;
7931;SDS011;4011;49.424;10.894;2023-12-20T22:13:00;2.30;;;1.40;;
7931;SDS011;4011;49.424;10.894;2023-12-20T22:18:23;2.90;;;1.30;;
7931;SDS011;4011;49.424;10.894;2023-12-20T22:23:45;4.10;;;1.45;;
7931;SDS011;4011;49.424;10.894;2023-12-20T22:29:06;3.10;;;1.50;;
7931;SDS011;4011;49.424;10.894;2023-12-20T22:34:29;2.80;;;1.58;;
7931;SDS011;4011;49.424;10.894;2023-12-20T22:39:51;2.58;;;1.40;;
7931;SDS011;4011;49.424;10.894;2023-12-20T22:45:12;2.83;;;1.40;;
7931;SDS011;4011;49.424;10.894;2023-12-20T22:50:35;2.75;;;1.35;;
7931;SDS011;4011;49.424;10.894;2023-12-20T22:55:56;2.45;;;1.58;;
7931;SDS011;4011;49.424;10.894;2023-12-20T23:01:18;2.40;;;1.20;;
7931;SDS011;4011;49.424;10.894;2023-12-20T23:06:41;2.33;;;1.30;;
7931;SDS011;4011;49.424;10.894;2023-12-20T23:12:03;4.18;;;1.60;;
7931;SDS011;4011;49.424;10.894;2023-12-20T23:17:24;2.70;;;1.30;;
7931;SDS011;4011;49.424;10.894;2023-12-20T23:22:47;1.50;;;1.10;;
7931;SDS011;4011;49.424;10.894;2023-12-20T23:28:09;4.25;;;1.50;;
7931;SDS011;4011;49.424;10.894;2023-12-20T23:33:30;2.00;;;1.30;;
7931;SDS011;4011;49.424;10.894;2023-12-20T23:38:53;1.88;;;1.10;;
7931;SDS011;4011;49.424;10.894;2023-12-20T23:44:18;2.38;;;1.30;;
7931;SDS011;4011;49.424;10.894;2023-12-20T23:49:39;3.13;;;1.40;;
7931;SDS011;4011;49.424;10.894;2023-12-20T23:55:02;2.45;;;1.38;;
